createdAt,value
2019-06-01T00:00:10.331Z,11.18
2019-06-01T00:00:55.534Z,11.14
2019-06-01T00:01:55.608Z,11.14
2019-06-01T00:02:57.195Z,11.13
2019-06-01T00:03:55.538Z,11.10
2019-06-01T00:04:55.613Z,11.07
2019-06-01T00:05:55.610Z,11.07
2019-06-01T00:06:55.549Z,11.07
2019-06-01T00:07:55.610Z,11.09
2019-06-01T00:08:55.612Z,11.06
2019-06-01T00:09:55.489Z,11.05
2019-06-01T00:10:55.611Z,11.05
2019-06-01T00:11:55.491Z,11.06
2019-06-01T00:12:55.543Z,11.05
2019-06-01T00:13:55.546Z,11.00
2019-06-01T00:14:55.567Z,10.97
2019-06-01T00:15:55.564Z,10.95
2019-06-01T00:16:55.553Z,10.91
2019-06-01T00:17:55.521Z,10.87
2019-06-01T00:18:55.617Z,10.83
2019-06-01T00:19:55.618Z,10.81
2019-06-01T00:20:55.619Z,10.80
2019-06-01T00:21:55.561Z,10.79
2019-06-01T00:22:55.555Z,10.79
2019-06-01T00:23:55.545Z,10.81
2019-06-01T00:24:55.550Z,10.80
2019-06-01T00:25:55.628Z,10.77
2019-06-01T00:26:55.560Z,10.75
2019-06-01T00:27:55.549Z,10.71
2019-06-01T00:28:55.631Z,10.67
2019-06-01T00:29:55.569Z,10.64
2019-06-01T00:30:55.556Z,10.64
2019-06-01T00:31:55.642Z,10.64
2019-06-01T00:32:55.626Z,10.65
2019-06-01T00:33:55.559Z,10.65
2019-06-01T00:34:55.639Z,10.63
2019-06-01T00:35:55.555Z,10.63
2019-06-01T00:36:55.560Z,10.63
2019-06-01T00:37:55.631Z,10.61
2019-06-01T00:38:55.575Z,10.60
2019-06-01T00:39:55.586Z,10.57
2019-06-01T00:40:55.585Z,10.54
2019-06-01T00:41:55.640Z,10.52
2019-06-01T00:42:55.582Z,10.47
2019-06-01T00:43:55.573Z,10.46
2019-06-01T00:44:55.590Z,10.43
2019-06-01T00:45:55.647Z,10.41
2019-06-01T00:46:55.648Z,10.39
2019-06-01T00:47:55.656Z,10.36
2019-06-01T00:48:55.552Z,10.34
2019-06-01T00:49:55.639Z,10.35
2019-06-01T00:50:55.582Z,10.34
2019-06-01T00:51:55.533Z,10.31
2019-06-01T00:52:55.564Z,10.30
2019-06-01T00:53:55.627Z,10.31
2019-06-01T00:54:55.630Z,10.30
2019-06-01T00:55:55.552Z,10.30
2019-06-01T00:56:55.639Z,10.31
2019-06-01T00:57:55.699Z,10.31
2019-06-01T00:58:55.631Z,10.28
2019-06-01T00:59:55.612Z,10.25
2019-06-01T01:00:55.600Z,10.24
2019-06-01T01:01:55.549Z,10.21
2019-06-01T01:02:55.584Z,10.20
2019-06-01T01:03:55.533Z,10.17
2019-06-01T01:04:55.649Z,10.16
2019-06-01T01:05:55.669Z,10.17
2019-06-01T01:06:55.558Z,10.18
2019-06-01T01:07:55.618Z,10.17
2019-06-01T01:08:55.587Z,10.17
2019-06-01T01:09:55.656Z,10.14
2019-06-01T01:10:55.666Z,10.13
2019-06-01T01:11:55.594Z,10.11
2019-06-01T01:12:55.657Z,10.08
2019-06-01T01:13:55.591Z,10.11
2019-06-01T01:14:55.661Z,10.08
2019-06-01T01:15:55.658Z,10.06
2019-06-01T01:16:55.811Z,10.09
2019-06-01T01:17:56.190Z,10.16
2019-06-01T01:18:55.978Z,10.18
2019-06-01T01:19:56.043Z,10.24
2019-06-01T01:20:56.275Z,10.24
2019-06-01T01:21:56.336Z,10.25
2019-06-01T01:22:56.468Z,10.30
2019-06-01T01:23:56.656Z,10.34
2019-06-01T01:24:56.548Z,10.31
2019-06-01T01:25:56.653Z,10.31
2019-06-01T01:26:56.700Z,10.30
2019-06-01T01:27:56.914Z,10.30
2019-06-01T01:28:56.926Z,10.30
2019-06-01T01:29:55.670Z,10.31
2019-06-01T01:31:06.507Z,10.30
2019-06-01T01:31:55.679Z,10.27
2019-06-01T01:32:55.940Z,10.28
2019-06-01T01:33:55.680Z,10.24
2019-06-01T01:34:55.649Z,10.24
2019-06-01T01:35:55.889Z,10.21
2019-06-01T01:36:56.079Z,10.21
2019-06-01T01:37:55.945Z,10.21
2019-06-01T01:38:56.243Z,10.20
2019-06-01T01:39:56.296Z,10.17
2019-06-01T01:40:56.263Z,10.16
2019-06-01T01:41:56.311Z,10.16
2019-06-01T01:42:56.496Z,10.14
2019-06-01T01:43:56.550Z,10.13
2019-06-01T01:44:56.627Z,10.09
2019-06-01T01:45:56.878Z,10.08
2019-06-01T01:46:56.891Z,10.08
2019-06-01T01:47:57.041Z,10.05
2019-06-01T01:48:56.182Z,10.04
2019-06-01T01:49:56.129Z,10.04
2019-06-01T01:50:56.424Z,10.06
2019-06-01T01:51:55.643Z,10.08
2019-06-01T01:52:57.056Z,10.06
2019-06-01T01:53:56.662Z,10.05
2019-06-01T01:54:56.751Z,10.04
2019-06-01T01:55:57.164Z,10.01
2019-06-01T01:56:56.176Z,10.01
2019-06-01T01:57:55.598Z,10.04
2019-06-01T01:58:56.476Z,10.06
2019-06-01T01:59:55.696Z,10.05
2019-06-01T02:00:56.835Z,10.06
2019-06-01T02:01:56.554Z,10.06
2019-06-01T02:02:55.890Z,10.05
2019-06-01T02:03:57.285Z,10.02
2019-06-01T02:04:55.863Z,10.04
2019-06-01T02:05:56.890Z,10.00
2019-06-01T02:06:55.948Z,10.00
2019-06-01T02:07:55.649Z,9.98
2019-06-01T02:08:55.713Z,9.97
2019-06-01T02:09:55.715Z,9.94
2019-06-01T02:10:55.723Z,9.93
2019-06-01T02:11:55.717Z,9.93
2019-06-01T02:12:55.730Z,9.91
2019-06-01T02:13:55.673Z,9.93
2019-06-01T02:14:55.670Z,9.93
2019-06-01T02:15:56.183Z,9.93
2019-06-01T02:16:56.246Z,9.91
2019-06-01T02:17:56.044Z,9.89
2019-06-01T02:18:57.192Z,9.87
2019-06-01T02:19:56.091Z,9.86
2019-06-01T02:20:56.274Z,9.86
2019-06-01T02:21:56.453Z,9.86
2019-06-01T02:22:56.781Z,9.82
2019-06-01T02:23:56.871Z,9.82
2019-06-01T02:24:55.860Z,9.80
2019-06-01T02:25:56.841Z,9.80
2019-06-01T02:26:57.122Z,9.80
2019-06-01T02:27:57.205Z,9.79
2019-06-01T02:28:55.639Z,9.79
2019-06-01T02:29:55.656Z,9.78
2019-06-01T02:30:56.222Z,9.76
2019-06-01T02:31:56.651Z,9.73
2019-06-01T02:32:56.347Z,9.71
2019-06-01T02:33:56.336Z,9.69
2019-06-01T02:34:56.417Z,9.66
2019-06-01T02:35:56.305Z,9.65
2019-06-01T02:36:56.481Z,9.61
2019-06-01T02:37:56.441Z,9.60
2019-06-01T02:38:56.502Z,9.58
2019-06-01T02:39:56.736Z,9.64
2019-06-01T02:40:57.104Z,9.64
2019-06-01T02:41:56.780Z,9.65
2019-06-01T02:42:57.132Z,9.64
2019-06-01T02:43:57.343Z,9.65
2019-06-01T02:44:57.292Z,9.69
2019-06-01T02:45:56.298Z,9.69
2019-06-01T02:46:56.975Z,9.66
2019-06-01T02:47:57.405Z,9.65
2019-06-01T02:48:57.258Z,9.64
2019-06-01T02:49:56.132Z,9.64
2019-06-01T02:50:55.855Z,9.62
2019-06-01T02:51:55.744Z,9.65
2019-06-01T02:52:55.682Z,9.66
2019-06-01T02:53:55.700Z,9.66
2019-06-01T02:54:55.704Z,9.65
2019-06-01T02:55:55.861Z,9.64
2019-06-01T02:56:55.874Z,9.60
2019-06-01T02:57:56.013Z,9.55
2019-06-01T02:58:56.114Z,9.53
2019-06-01T02:59:56.308Z,9.50
2019-06-01T03:00:56.576Z,9.47
2019-06-01T03:01:58.212Z,9.46
2019-06-01T03:02:56.571Z,9.47
2019-06-01T03:03:57.414Z,9.50
2019-06-01T03:04:57.015Z,9.53
2019-06-01T03:05:55.742Z,9.54
2019-06-01T03:06:55.677Z,9.53
2019-06-01T03:07:55.740Z,9.51
2019-06-01T03:08:55.687Z,9.50
2019-06-01T03:09:55.756Z,9.50
2019-06-01T03:10:55.767Z,9.53
2019-06-01T03:11:55.687Z,9.57
2019-06-01T03:12:55.766Z,9.61
2019-06-01T03:13:55.771Z,9.61
2019-06-01T03:14:55.688Z,9.62
2019-06-01T03:15:55.709Z,9.62
2019-06-01T03:16:55.693Z,9.61
2019-06-01T03:17:55.768Z,9.61
2019-06-01T03:18:55.700Z,9.58
2019-06-01T03:19:55.699Z,9.60
2019-06-01T03:20:55.826Z,9.58
2019-06-01T03:21:55.767Z,9.57
2019-06-01T03:22:55.763Z,9.58
2019-06-01T03:23:55.694Z,9.61
2019-06-01T03:24:55.768Z,9.65
2019-06-01T03:25:55.694Z,9.69
2019-06-01T03:26:55.914Z,9.69
2019-06-01T03:27:55.781Z,9.69
2019-06-01T03:28:55.713Z,9.65
2019-06-01T03:29:55.756Z,9.62
2019-06-01T03:30:55.757Z,9.60
2019-06-01T03:31:55.696Z,9.57
2019-06-01T03:32:55.763Z,9.55
2019-06-01T03:33:55.691Z,9.54
2019-06-01T03:34:55.690Z,9.51
2019-06-01T03:35:55.674Z,9.53
2019-06-01T03:36:56.358Z,9.55
2019-06-01T03:37:55.760Z,9.62
2019-06-01T03:38:55.760Z,9.69
2019-06-01T03:39:55.766Z,9.69
2019-06-01T03:40:55.766Z,9.69
2019-06-01T03:41:55.769Z,9.69
2019-06-01T03:42:55.690Z,9.72
2019-06-01T03:43:55.699Z,9.72
2019-06-01T03:44:55.696Z,9.75
2019-06-01T03:45:55.772Z,9.78
2019-06-01T03:46:55.684Z,9.82
2019-06-01T03:47:55.774Z,9.86
2019-06-01T03:48:55.772Z,9.90
2019-06-01T03:49:55.777Z,9.95
2019-06-01T03:50:55.706Z,10.01
2019-06-01T03:51:55.775Z,10.06
2019-06-01T03:52:55.701Z,10.08
2019-06-01T03:53:55.700Z,10.11
2019-06-01T03:54:55.781Z,10.16
2019-06-01T03:55:55.700Z,10.20
2019-06-01T03:56:55.732Z,10.23
2019-06-01T03:57:55.778Z,10.30
2019-06-01T03:58:55.705Z,10.34
2019-06-01T03:59:55.720Z,10.39
2019-06-01T04:00:55.782Z,10.43
2019-06-01T04:01:55.717Z,10.49
2019-06-01T04:02:55.712Z,10.53
2019-06-01T04:03:55.785Z,10.57
2019-06-01T04:04:55.784Z,10.61
2019-06-01T04:05:55.782Z,10.67
2019-06-01T04:06:55.789Z,10.74
2019-06-01T04:07:55.728Z,10.83
2019-06-01T04:08:55.787Z,10.90
2019-06-01T04:09:55.731Z,10.98
2019-06-01T04:10:55.807Z,11.07
2019-06-01T04:11:55.797Z,11.13
2019-06-01T04:12:55.811Z,11.20
2019-06-01T04:13:55.748Z,11.24
2019-06-01T04:14:55.799Z,11.31
2019-06-01T04:15:55.737Z,11.35
2019-06-01T04:16:55.806Z,11.40
2019-06-01T04:17:55.761Z,11.46
2019-06-01T04:18:55.806Z,11.50
2019-06-01T04:19:55.780Z,11.56
2019-06-01T04:20:55.746Z,11.58
2019-06-01T04:21:55.812Z,11.62
2019-06-01T04:22:55.735Z,11.65
2019-06-01T04:23:55.742Z,11.68
2019-06-01T04:24:55.757Z,11.71
2019-06-01T04:25:55.824Z,11.73
2019-06-01T04:26:55.807Z,11.76
2019-06-01T04:27:55.745Z,11.80
2019-06-01T04:28:55.815Z,11.82
2019-06-01T04:29:55.811Z,11.86
2019-06-01T04:30:55.758Z,11.91
2019-06-01T04:31:55.815Z,11.94
2019-06-01T04:32:55.749Z,11.97
2019-06-01T04:33:55.820Z,11.99
2019-06-01T04:34:55.819Z,12.02
2019-06-01T04:35:55.746Z,12.03
2019-06-01T04:36:55.746Z,12.05
2019-06-01T04:37:55.748Z,12.03
2019-06-01T04:38:55.816Z,12.03
2019-06-01T04:39:55.816Z,12.05
2019-06-01T04:40:55.741Z,12.08
2019-06-01T04:41:55.738Z,12.09
2019-06-01T04:42:55.772Z,12.12
2019-06-01T04:43:55.813Z,12.13
2019-06-01T04:44:55.820Z,12.16
2019-06-01T04:45:55.814Z,12.20
2019-06-01T04:46:55.728Z,12.21
2019-06-01T04:47:55.728Z,12.25
2019-06-01T04:48:55.761Z,12.24
2019-06-01T04:49:55.814Z,12.24
2019-06-01T04:50:55.742Z,12.24
2019-06-01T04:51:55.754Z,12.26
2019-06-01T04:52:55.745Z,12.29
2019-06-01T04:53:55.820Z,12.33
2019-06-01T04:54:55.757Z,12.35
2019-06-01T04:55:55.822Z,12.39
2019-06-01T04:56:55.756Z,12.43
2019-06-01T04:57:55.825Z,12.46
2019-06-01T04:58:55.825Z,12.47
2019-06-01T04:59:55.771Z,12.54
2019-06-01T05:00:55.838Z,12.61
2019-06-01T05:01:55.846Z,12.68
2019-06-01T05:03:04.992Z,12.71
2019-06-01T05:03:55.929Z,12.73
2019-06-01T05:04:55.781Z,12.72
2019-06-01T05:05:55.773Z,12.72
2019-06-01T05:06:55.899Z,12.73
2019-06-01T05:07:55.836Z,12.77
2019-06-01T05:08:55.845Z,12.80
2019-06-01T05:09:55.854Z,12.80
2019-06-01T05:10:55.833Z,12.83
2019-06-01T05:11:55.835Z,12.86
2019-06-01T05:12:55.745Z,12.89
2019-06-01T05:13:55.829Z,12.89
2019-06-01T05:14:55.744Z,12.91
2019-06-01T05:15:55.843Z,12.89
2019-06-01T05:16:55.841Z,12.89
2019-06-01T05:17:55.840Z,12.87
2019-06-01T05:18:55.771Z,12.82
2019-06-01T05:19:55.845Z,12.82
2019-06-01T05:20:55.836Z,12.79
2019-06-01T05:21:55.841Z,12.82
2019-06-01T05:22:55.810Z,12.82
2019-06-01T05:23:55.752Z,12.83
2019-06-01T05:24:55.767Z,12.86
2019-06-01T05:25:55.846Z,12.89
2019-06-01T05:26:55.774Z,12.94
2019-06-01T05:27:55.846Z,12.96
2019-06-01T05:28:55.846Z,13.05
2019-06-01T05:29:55.859Z,13.07
2019-06-01T05:30:55.862Z,13.07
2019-06-01T05:31:55.788Z,13.14
2019-06-01T05:32:55.872Z,13.18
2019-06-01T05:33:55.820Z,13.25
2019-06-01T05:34:55.801Z,13.28
2019-06-01T05:35:55.796Z,13.34
2019-06-01T05:36:55.798Z,13.39
2019-06-01T05:37:55.872Z,13.40
2019-06-01T05:38:55.799Z,13.45
2019-06-01T05:39:55.862Z,13.50
2019-06-01T05:40:55.808Z,13.59
2019-06-01T05:41:55.873Z,13.66
2019-06-01T05:42:55.871Z,13.73
2019-06-01T05:43:55.888Z,13.80
2019-06-01T05:44:55.802Z,13.88
2019-06-01T05:45:55.876Z,14.00
2019-06-01T05:46:55.876Z,14.17
2019-06-01T05:47:55.806Z,14.35
2019-06-01T05:48:55.872Z,14.51
2019-06-01T05:49:55.828Z,14.64
2019-06-01T05:50:55.896Z,14.78
2019-06-01T05:51:55.873Z,14.94
2019-06-01T05:52:55.879Z,15.07
2019-06-01T05:53:55.807Z,15.18
2019-06-01T05:54:55.887Z,15.29
2019-06-01T05:55:55.808Z,15.43
2019-06-01T05:56:55.875Z,15.48
2019-06-01T05:57:55.878Z,15.48
2019-06-01T05:58:55.882Z,15.54
2019-06-01T05:59:55.869Z,15.58
2019-06-01T06:00:55.861Z,15.66
2019-06-01T06:01:55.797Z,15.80
2019-06-01T06:02:55.874Z,15.93
2019-06-01T06:03:55.774Z,15.97
2019-06-01T06:04:55.875Z,15.87
2019-06-01T06:05:55.878Z,15.91
2019-06-01T06:06:55.756Z,15.87
2019-06-01T06:07:55.875Z,15.79
2019-06-01T06:08:55.877Z,15.77
2019-06-01T06:09:55.751Z,15.93
2019-06-01T06:10:55.829Z,15.97
2019-06-01T06:11:55.842Z,16.07
2019-06-01T06:12:55.875Z,16.17
2019-06-01T06:13:55.817Z,16.35
2019-06-01T06:14:55.883Z,16.46
2019-06-01T06:15:55.751Z,16.61
2019-06-01T06:16:55.761Z,16.74
2019-06-01T06:17:55.896Z,16.80
2019-06-01T06:18:55.785Z,16.84
2019-06-01T06:19:55.817Z,16.80
2019-06-01T06:20:55.855Z,16.76
2019-06-01T06:21:55.811Z,16.76
2019-06-01T06:22:55.757Z,16.79
2019-06-01T06:23:55.872Z,16.98
2019-06-01T06:24:55.880Z,17.20
2019-06-01T06:25:55.871Z,17.39
2019-06-01T06:26:55.791Z,17.62
2019-06-01T06:27:55.805Z,17.87
2019-06-01T06:28:55.888Z,18.13
2019-06-01T06:29:55.910Z,18.29
2019-06-01T06:30:55.849Z,18.43
2019-06-01T06:31:55.835Z,18.51
2019-06-01T06:32:55.908Z,18.54
2019-06-01T06:33:56.939Z,18.66
2019-06-01T06:34:55.907Z,18.80
2019-06-01T06:35:55.903Z,18.88
2019-06-01T06:36:55.924Z,19.05
2019-06-01T06:37:55.840Z,19.09
2019-06-01T06:38:55.839Z,19.09
2019-06-01T06:39:55.872Z,19.17
2019-06-01T06:40:55.827Z,19.28
2019-06-01T06:41:55.838Z,19.40
2019-06-01T06:42:55.904Z,19.54
2019-06-01T06:43:55.918Z,19.70
2019-06-01T06:44:55.906Z,19.70
2019-06-01T06:45:55.812Z,19.66
2019-06-01T06:46:55.819Z,19.57
2019-06-01T06:47:55.909Z,19.39
2019-06-01T06:48:55.848Z,19.44
2019-06-01T06:49:55.871Z,19.49
2019-06-01T06:50:55.913Z,19.32
2019-06-01T06:51:55.895Z,19.10
2019-06-01T06:52:55.795Z,19.17
2019-06-01T06:53:55.834Z,19.06
2019-06-01T06:54:55.821Z,19.09
2019-06-01T06:55:55.779Z,18.88
2019-06-01T06:56:55.891Z,18.81
2019-06-01T06:57:55.784Z,18.94
2019-06-01T06:58:55.873Z,19.06
2019-06-01T06:59:55.842Z,19.25
2019-06-01T07:00:55.931Z,19.46
2019-06-01T07:01:55.919Z,19.74
2019-06-01T07:02:55.845Z,19.94
2019-06-01T07:04:09.380Z,20.07
2019-06-01T07:04:55.861Z,19.96
2019-06-01T07:05:55.923Z,20.17
2019-06-01T07:06:55.846Z,20.31
2019-06-01T07:07:55.930Z,20.52
2019-06-01T07:08:55.852Z,20.83
2019-06-01T07:09:55.876Z,21.05
2019-06-01T07:10:55.933Z,21.36
2019-06-01T07:11:55.952Z,21.39
2019-06-01T07:12:55.940Z,21.36
2019-06-01T07:13:55.936Z,21.31
2019-06-01T07:14:55.944Z,21.36
2019-06-01T07:15:55.896Z,21.32
2019-06-01T07:16:55.934Z,21.27
2019-06-01T07:17:55.954Z,21.18
2019-06-01T07:18:55.875Z,21.09
2019-06-01T07:19:55.875Z,21.21
2019-06-01T07:20:55.940Z,21.34
2019-06-01T07:21:55.944Z,21.20
2019-06-01T07:22:55.883Z,21.34
2019-06-01T07:23:55.965Z,21.46
2019-06-01T07:24:56.028Z,21.53
2019-06-01T07:25:55.950Z,21.49
2019-06-01T07:26:55.893Z,21.49
2019-06-01T07:27:55.971Z,21.51
2019-06-01T07:28:55.895Z,21.56
2019-06-01T07:29:55.961Z,21.76
2019-06-01T07:30:55.876Z,21.82
2019-06-01T07:31:55.963Z,21.78
2019-06-01T07:32:55.898Z,22.02
2019-06-01T07:33:56.017Z,22.25
2019-06-01T07:34:55.881Z,22.23
2019-06-01T07:35:55.959Z,22.34
2019-06-01T07:36:55.965Z,22.48
2019-06-01T07:37:55.962Z,22.67
2019-06-01T07:38:55.953Z,22.82
2019-06-01T07:39:55.940Z,22.49
2019-06-01T07:40:55.878Z,22.48
2019-06-01T07:41:55.905Z,22.48
2019-06-01T07:42:55.947Z,22.64
2019-06-01T07:43:55.942Z,22.82
2019-06-01T07:44:55.901Z,23.02
2019-06-01T07:45:55.885Z,23.11
2019-06-01T07:46:55.879Z,23.08
2019-06-01T07:47:55.952Z,22.98
2019-06-01T07:48:55.879Z,23.08
2019-06-01T07:49:56.009Z,23.31
2019-06-01T07:50:55.960Z,23.51
2019-06-01T07:51:56.061Z,23.76
2019-06-01T07:52:55.952Z,23.96
2019-06-01T07:53:55.960Z,24.15
2019-06-01T07:54:55.955Z,24.34
2019-06-01T07:55:55.953Z,24.42
2019-06-01T07:56:55.960Z,24.31
2019-06-01T07:57:55.957Z,24.34
2019-06-01T07:58:55.892Z,24.40
2019-06-01T07:59:55.934Z,24.60
2019-06-01T08:00:55.970Z,24.71
2019-06-01T08:01:55.936Z,24.75
2019-06-01T08:02:55.972Z,24.38
2019-06-01T08:03:55.974Z,23.86
2019-06-01T08:04:55.971Z,23.28
2019-06-01T08:05:55.986Z,23.20
2019-06-01T08:06:56.020Z,23.35
2019-06-01T08:07:55.909Z,23.50
2019-06-01T08:08:55.978Z,23.78
2019-06-01T08:09:55.967Z,23.89
2019-06-01T08:10:55.866Z,23.94
2019-06-01T08:11:55.960Z,23.87
2019-06-01T08:12:55.841Z,23.98
2019-06-01T08:13:55.846Z,24.29
2019-06-01T08:14:55.963Z,24.57
2019-06-01T08:15:55.896Z,24.79
2019-06-01T08:16:55.960Z,25.11
2019-06-01T08:17:55.910Z,25.26
2019-06-01T08:18:55.863Z,25.27
2019-06-01T08:19:55.978Z,25.24
2019-06-01T08:20:55.977Z,25.30
2019-06-01T08:21:56.001Z,25.24
2019-06-01T08:22:55.917Z,25.29
2019-06-01T08:23:55.989Z,25.16
2019-06-01T08:24:55.989Z,25.08
2019-06-01T08:25:55.931Z,25.06
2019-06-01T08:26:55.995Z,24.94
2019-06-01T08:27:55.988Z,25.02
2019-06-01T08:28:55.926Z,24.89
2019-06-01T08:29:55.994Z,25.12
2019-06-01T08:30:55.991Z,25.31
2019-06-01T08:31:56.127Z,25.33
2019-06-01T08:32:56.004Z,25.38
2019-06-01T08:33:55.939Z,25.62
2019-06-01T08:35:07.987Z,25.84
2019-06-01T08:35:55.998Z,26.08
2019-06-01T08:36:55.897Z,26.32
2019-06-01T08:37:56.021Z,26.43
2019-06-01T08:38:55.931Z,26.25
2019-06-01T08:39:59.107Z,26.34
2019-06-01T08:40:56.000Z,26.14
2019-06-01T08:41:55.998Z,26.24
2019-06-01T08:42:55.947Z,25.93
2019-06-01T08:43:56.029Z,25.68
2019-06-01T08:44:56.002Z,25.40
2019-06-01T08:45:56.001Z,25.12
2019-06-01T08:46:55.943Z,25.06
2019-06-01T08:47:56.005Z,25.01
2019-06-01T08:48:55.945Z,25.02
2019-06-01T08:49:56.030Z,25.19
2019-06-01T08:50:56.010Z,24.94
2019-06-01T08:51:55.943Z,24.71
2019-06-01T08:52:55.943Z,24.47
2019-06-01T08:53:55.954Z,24.25
2019-06-01T08:54:56.009Z,24.33
2019-06-01T08:55:55.946Z,24.51
2019-06-01T08:56:56.013Z,24.81
2019-06-01T08:57:55.940Z,25.08
2019-06-01T08:58:55.944Z,25.40
2019-06-01T08:59:55.943Z,25.62
2019-06-01T09:00:55.944Z,25.75
2019-06-01T09:01:55.931Z,25.91
2019-06-01T09:02:56.005Z,25.70
2019-06-01T09:03:56.010Z,25.81
2019-06-01T09:04:56.008Z,26.13
2019-06-01T09:05:55.940Z,26.30
2019-06-01T09:06:55.936Z,26.40
2019-06-01T09:07:56.014Z,26.45
2019-06-01T09:08:55.960Z,26.45
2019-06-01T09:09:56.017Z,26.33
2019-06-01T09:10:55.938Z,25.88
2019-06-01T09:11:55.945Z,25.64
2019-06-01T09:12:55.943Z,25.49
2019-06-01T09:13:55.938Z,25.49
2019-06-01T09:14:56.054Z,25.41
2019-06-01T09:15:56.015Z,25.44
2019-06-01T09:16:55.906Z,25.42
2019-06-01T09:17:56.024Z,25.23
2019-06-01T09:18:55.961Z,25.31
2019-06-01T09:19:56.119Z,25.30
2019-06-01T09:20:56.038Z,25.40
2019-06-01T09:21:55.958Z,25.46
2019-06-01T09:22:55.946Z,25.49
2019-06-01T09:23:55.977Z,25.49
2019-06-01T09:24:56.028Z,25.41
2019-06-01T09:25:56.018Z,25.48
2019-06-01T09:26:56.026Z,25.55
2019-06-01T09:27:56.120Z,25.45
2019-06-01T09:28:55.933Z,25.40
2019-06-01T09:29:55.962Z,25.23
2019-06-01T09:30:55.894Z,25.02
2019-06-01T09:31:55.995Z,24.97
2019-06-01T09:32:55.987Z,24.94
2019-06-01T09:33:55.945Z,24.97
2019-06-01T09:34:55.917Z,24.97
2019-06-01T09:35:56.534Z,24.79
2019-06-01T09:36:55.990Z,24.74
2019-06-01T09:37:55.992Z,24.70
2019-06-01T09:38:55.942Z,24.77
2019-06-01T09:39:56.009Z,24.94
2019-06-01T09:40:56.059Z,25.12
2019-06-01T09:41:56.095Z,25.37
2019-06-01T09:42:56.052Z,25.41
2019-06-01T09:43:56.048Z,25.53
2019-06-01T09:44:56.008Z,25.49
2019-06-01T09:45:56.047Z,25.40
2019-06-01T09:46:55.978Z,25.48
2019-06-01T09:47:56.193Z,25.46
2019-06-01T09:48:55.982Z,25.53
2019-06-01T09:49:56.048Z,25.23
2019-06-01T09:50:56.047Z,25.20
2019-06-01T09:51:56.003Z,25.24
2019-06-01T09:52:56.066Z,25.16
2019-06-01T09:53:56.033Z,25.23
2019-06-01T09:54:55.985Z,25.26
2019-06-01T09:55:56.074Z,25.34
2019-06-01T09:56:56.066Z,25.27
2019-06-01T09:57:55.985Z,25.46
2019-06-01T09:58:56.061Z,25.52
2019-06-01T09:59:56.064Z,25.42
2019-06-01T10:00:55.956Z,25.26
2019-06-01T10:01:56.047Z,25.29
2019-06-01T10:02:55.964Z,25.53
2019-06-01T10:03:56.060Z,25.66
2019-06-01T10:04:55.979Z,25.77
2019-06-01T10:06:01.820Z,25.97
2019-06-01T10:06:56.047Z,25.92
2019-06-01T10:07:55.970Z,25.88
2019-06-01T10:08:55.990Z,25.91
2019-06-01T10:09:56.055Z,25.75
2019-06-01T10:10:56.066Z,25.75
2019-06-01T10:11:56.071Z,25.68
2019-06-01T10:12:56.008Z,25.70
2019-06-01T10:13:56.004Z,25.55
2019-06-01T10:14:56.075Z,25.37
2019-06-01T10:15:56.076Z,25.19
2019-06-01T10:16:56.008Z,24.98
2019-06-01T10:17:56.073Z,25.15
2019-06-01T10:18:56.007Z,25.29
2019-06-01T10:19:56.006Z,25.41
2019-06-01T10:20:56.085Z,25.37
2019-06-01T10:21:56.075Z,25.51
2019-06-01T10:22:56.002Z,25.51
2019-06-01T10:23:56.081Z,25.68
2019-06-01T10:24:56.075Z,25.60
2019-06-01T10:25:56.016Z,25.73
2019-06-01T10:26:56.015Z,25.85
2019-06-01T10:27:56.087Z,25.77
2019-06-01T10:28:56.087Z,25.45
2019-06-01T10:29:56.082Z,25.44
2019-06-01T10:30:55.971Z,25.17
2019-06-01T10:31:56.034Z,25.04
2019-06-01T10:32:56.062Z,25.19
2019-06-01T10:33:56.001Z,25.38
2019-06-01T10:34:56.006Z,25.60
2019-06-01T10:35:55.953Z,25.74
2019-06-01T10:36:56.016Z,25.75
2019-06-01T10:37:56.069Z,25.74
2019-06-01T10:38:56.028Z,25.59
2019-06-01T10:39:56.022Z,25.73
2019-06-01T10:40:56.095Z,26.10
2019-06-01T10:41:56.092Z,26.44
2019-06-01T10:42:56.026Z,26.52
2019-06-01T10:43:56.032Z,26.58
2019-06-01T10:44:56.026Z,26.75
2019-06-01T10:45:56.095Z,26.71
2019-06-01T10:46:56.100Z,26.55
2019-06-01T10:47:56.107Z,26.44
2019-06-01T10:48:56.094Z,26.33
2019-06-01T10:49:56.096Z,26.30
2019-06-01T10:50:56.029Z,26.48
2019-06-01T10:51:56.091Z,26.54
2019-06-01T10:52:56.035Z,26.75
2019-06-01T10:53:56.096Z,26.82
2019-06-01T10:54:55.996Z,26.74
2019-06-01T10:55:56.099Z,26.90
2019-06-01T10:56:56.032Z,26.89
2019-06-01T10:57:56.100Z,26.71
2019-06-01T10:59:00.374Z,26.67
2019-06-01T10:59:56.071Z,27.10
2019-06-01T11:00:56.034Z,27.47
2019-06-01T11:01:56.107Z,27.54
2019-06-01T11:02:56.035Z,27.58
2019-06-01T11:03:56.105Z,27.47
2019-06-01T11:04:56.118Z,27.22
2019-06-01T11:05:56.112Z,27.28
2019-06-01T11:06:56.057Z,27.36
2019-06-01T11:07:56.114Z,27.25
2019-06-01T11:08:56.079Z,27.00
2019-06-01T11:09:56.104Z,26.79
2019-06-01T11:10:56.003Z,26.89
2019-06-01T11:11:56.105Z,26.79
2019-06-01T11:12:56.003Z,26.71
2019-06-01T11:13:56.098Z,26.75
2019-06-01T11:14:56.007Z,27.04
2019-06-01T11:15:56.098Z,27.36
2019-06-01T11:16:56.871Z,27.59
2019-06-01T11:17:56.072Z,27.68
2019-06-01T11:18:56.114Z,27.73
2019-06-01T11:19:56.050Z,27.71
2019-06-01T11:20:56.113Z,27.54
2019-06-01T11:21:56.057Z,27.30
2019-06-01T11:22:56.068Z,27.06
2019-06-01T11:23:56.128Z,27.06
2019-06-01T11:24:56.121Z,27.29
2019-06-01T11:25:56.124Z,27.30
2019-06-01T11:26:56.141Z,27.25
2019-06-01T11:27:56.136Z,27.15
2019-06-01T11:28:56.055Z,27.14
2019-06-01T11:29:56.054Z,27.17
2019-06-01T11:30:56.056Z,27.11
2019-06-01T11:31:56.061Z,27.01
2019-06-01T11:32:56.131Z,27.17
2019-06-01T11:33:56.126Z,27.04
2019-06-01T11:34:56.056Z,27.08
2019-06-01T11:35:56.065Z,27.18
2019-06-01T11:37:06.063Z,27.37
2019-06-01T11:37:56.129Z,27.04
2019-06-01T11:38:56.137Z,26.85
2019-06-01T11:39:56.130Z,26.96
2019-06-01T11:40:56.033Z,27.10
2019-06-01T11:41:56.101Z,27.25
2019-06-01T11:42:56.024Z,27.26
2019-06-01T11:43:56.134Z,27.34
2019-06-01T11:44:56.057Z,27.57
2019-06-01T11:45:56.050Z,27.44
2019-06-01T11:46:56.150Z,27.50
2019-06-01T11:47:56.041Z,27.61
2019-06-01T11:48:56.063Z,27.58
2019-06-01T11:49:56.131Z,27.89
2019-06-01T11:50:56.057Z,28.24
2019-06-01T11:51:56.040Z,28.28
2019-06-01T11:52:56.133Z,28.03
2019-06-01T11:53:56.063Z,27.50
2019-06-01T11:54:56.046Z,27.44
2019-06-01T11:55:56.080Z,27.41
2019-06-01T11:56:56.133Z,27.44
2019-06-01T11:57:56.060Z,27.47
2019-06-01T11:58:56.140Z,27.30
2019-06-01T11:59:56.071Z,27.19
2019-06-01T12:00:56.215Z,27.46
2019-06-01T12:01:56.104Z,27.48
2019-06-01T12:02:56.164Z,27.47
2019-06-01T12:03:56.169Z,27.59
2019-06-01T12:04:56.156Z,27.57
2019-06-01T12:05:56.092Z,27.84
2019-06-01T12:06:56.164Z,28.10
2019-06-01T12:07:56.154Z,28.31
2019-06-01T12:08:56.159Z,28.31
2019-06-01T12:09:56.047Z,28.51
2019-06-01T12:10:56.087Z,28.32
2019-06-01T12:11:56.089Z,28.22
2019-06-01T12:12:56.127Z,28.07
2019-06-01T12:13:56.087Z,28.11
2019-06-01T12:14:56.161Z,28.42
2019-06-01T12:15:56.156Z,28.54
2019-06-01T12:16:56.174Z,28.50
2019-06-01T12:17:56.094Z,28.46
2019-06-01T12:18:56.162Z,28.68
2019-06-01T12:19:56.096Z,28.71
2019-06-01T12:20:56.156Z,28.76
2019-06-01T12:21:56.156Z,28.98
2019-06-01T12:22:56.154Z,29.25
2019-06-01T12:23:56.067Z,29.17
2019-06-01T12:24:56.083Z,29.18
2019-06-01T12:25:56.040Z,29.14
2019-06-01T12:26:56.158Z,28.72
2019-06-01T12:27:56.088Z,28.55
2019-06-01T12:28:56.081Z,28.39
2019-06-01T12:29:56.101Z,27.93
2019-06-01T12:30:56.103Z,27.92
2019-06-01T12:31:56.170Z,28.14
2019-06-01T12:32:56.101Z,28.35
2019-06-01T12:33:56.175Z,28.36
2019-06-01T12:34:56.192Z,28.36
2019-06-01T12:35:56.174Z,28.50
2019-06-01T12:36:56.173Z,28.61
2019-06-01T12:38:06.194Z,28.64
2019-06-01T12:38:56.184Z,28.54
2019-06-01T12:39:56.107Z,28.54
2019-06-01T12:40:56.078Z,28.42
2019-06-01T12:41:56.081Z,28.31
2019-06-01T12:42:56.109Z,28.65
2019-06-01T12:43:56.166Z,28.57
2019-06-01T12:44:56.097Z,28.54
2019-06-01T12:46:06.631Z,28.51
2019-06-01T12:46:56.172Z,28.68
2019-06-01T12:47:58.530Z,28.68
2019-06-01T12:48:56.098Z,28.68
2019-06-01T12:49:56.179Z,28.73
2019-06-01T12:50:56.189Z,28.98
2019-06-01T12:51:56.184Z,29.09
2019-06-01T12:52:56.134Z,29.31
2019-06-01T12:53:56.080Z,29.43
2019-06-01T12:54:56.232Z,29.43
2019-06-01T12:55:56.136Z,29.37